Weather at Chicago O'Hare International Airport

Public forecast

Using degrees Fahrenheit for public forecast. Weather courtesy of forecast.io.

Current aviation weather report (METAR) for Chicago O'Hare International Airport

Retrieved 2021/05/06 06:51 UTC (23 minutes ago):

KORD 060651Z 15006KT 10SM BKN075 OVC090 10/M01 A3011 RMK AO2 SLP197 T01001006

Aviation forecast (TAF) for Chicago O'Hare International Airport

Retrieved 2021/05/06 06:34 UTC (40 minutes ago):

TAF KORD 060532Z 0606/0712 17007KT P6SM BKN070 FM061100 13005KT P6SM -SHRA SCT015 OVC035 FM061400 08006KT 6SM -SHRA BR SCT010 OVC015 FM061700 36011KT P6SM SCT015 BKN025 FM062000 04010KT P6SM SCT035 BKN070 FM070300 27006KT P6SM SCT150